Thunder radar more information blitzortung!


Radar de pluja more information rain snow radar


Visita la nostra xarxa de llocs de meteo:

Template documentation
and downloads

And another site



No particular awareness of the weather is required.    There are no Weather-warnings

Pagina Historial Weather Underground text

Diari Resum Agost 5, 2017 Unitats:  Mètric    Imperial   Tant
« Previous Dia
SegĂźent Dia »
Diari Setmana Mensual Anual Personalitzada
  Maxima: Minima: Media:
Temperatura: 36.4 °C 23.0 °C 30.4 °C
Punt de rosada: 20.3 °C 15.4 °C 17.1 °C
Humitat: 74 % 31 % 47 %
Wind Speed: 24.8 km/h 0.0 km/h 6.8 km/h
RĂ fegues de vent: 24.8 km/h - -
Vent:- - SSW
Pression baro: 1014.8 hPa 1010.7 hPa -
Precipitacions: 0.0 mm    
Historical Graphs
 
 
Dades de taula per Agost 5, 2017
Temps Temperatura Punt de rosada Pression baro Vent Wind Speed RĂ fegues de vent Humitat Rainfall Rate (Hourly)
00:00 23.8 °C 18.4 °C 1013.8 hPa Calm     72 % 0.0 mm
00:02 26.3 °C 18.7 °C 1013.8 hPa SW 1.9 km/h   63 % 0.0 mm
00:07 26.3 °C 18.7 °C 1013.8 hPa SW 1.9 km/h   63 % 0.0 mm
00:10 23.8 °C 18.4 °C 1012.8 hPa Calm     72 % 0.0 mm
00:12 26.2 °C 18.6 °C 1013.8 hPa Calm     63 % 0.0 mm
00:20 23.8 °C 18.4 °C 1012.8 hPa Calm     72 % 0.0 mm
00:30 23.7 °C 18.3 °C 1012.8 hPa Calm     72 % 0.0 mm
00:40 23.3 °C 17.9 °C 1013.8 hPa Calm   3.2 km/h 72 % 0.0 mm
00:50 23.2 °C 18.1 °C 1013.8 hPa Calm   1.6 km/h 73 % 0.0 mm
01:00 23.2 °C 18.1 °C 1013.8 hPa Calm     73 % 0.0 mm
01:10 23.2 °C 18.3 °C 1013.8 hPa Calm     74 % 0.0 mm
01:20 23.2 °C 18.3 °C 1013.8 hPa Calm     74 % 0.0 mm
01:30 23.2 °C 18.3 °C 1013.8 hPa Calm     74 % 0.0 mm
01:40 23.1 °C 18.2 °C 1013.8 hPa Calm     74 % 0.0 mm
01:50 23.0 °C 18.1 °C 1013.8 hPa Calm     74 % 0.0 mm
02:00 23.2 °C 18.3 °C 1013.8 hPa Calm     74 % 0.0 mm
02:10 23.2 °C 18.3 °C 1013.8 hPa Calm     74 % 0.0 mm
02:20 23.0 °C 18.1 °C 1013.8 hPa Calm     74 % 0.0 mm
02:30 23.2 °C 18.3 °C 1013.8 hPa WSW 1.6 km/h 1.6 km/h 74 % 0.0 mm
02:40 23.7 °C 18.6 °C 1013.8 hPa Calm     73 % 0.0 mm
02:50 24.2 °C 18.8 °C 1013.8 hPa NE 1.6 km/h 3.2 km/h 72 % 0.0 mm
03:00 24.3 °C 18.7 °C 1013.8 hPa NE 1.6 km/h 3.2 km/h 71 % 0.0 mm
03:10 24.8 °C 18.7 °C 1013.8 hPa NE 1.6 km/h 3.2 km/h 69 % 0.0 mm
03:20 25.0 °C 18.7 °C 1013.8 hPa East 3.2 km/h 4.8 km/h 68 % 0.0 mm
03:30 25.4 °C 18.8 °C 1013.8 hPa ESE 3.2 km/h 4.8 km/h 67 % 0.0 mm
03:40 26.0 °C 19.2 °C 1013.8 hPa Calm   3.2 km/h 66 % 0.0 mm
03:50 26.4 °C 19.3 °C 1013.8 hPa South 1.6 km/h 3.2 km/h 65 % 0.0 mm
04:00 26.7 °C 19.1 °C 1013.8 hPa South 1.6 km/h 3.2 km/h 63 % 0.0 mm
04:10 27.3 °C 19.1 °C 1013.8 hPa SE 3.2 km/h 4.8 km/h 61 % 0.0 mm
04:20 27.8 °C 19.6 °C 1013.8 hPa East 1.6 km/h 3.2 km/h 61 % 0.0 mm
04:30 27.7 °C 18.9 °C 1013.8 hPa East 1.6 km/h 3.2 km/h 59 % 0.0 mm
04:40 28.3 °C 19.2 °C 1014.8 hPa East 3.2 km/h 4.8 km/h 58 % 0.0 mm
04:50 29.0 °C 19.3 °C 1013.8 hPa ENE 1.6 km/h 4.8 km/h 56 % 0.0 mm
05:00 29.7 °C 19.4 °C 1013.8 hPa NE 1.6 km/h 3.2 km/h 54 % 0.0 mm
05:10 30.5 °C 19.8 °C 1013.8 hPa Calm   3.2 km/h 53 % 0.0 mm
10:17 30.4 °C 19.4 °C 1013.8 hPa South 3.7 km/h 3.7 km/h 52 % 0.0 mm
10:22 31.2 °C 19.6 °C 1013.8 hPa SSE 5.6 km/h 5.6 km/h 50 % 0.0 mm
10:27 31.2 °C 19.2 °C 1013.8 hPa West 3.7 km/h 3.7 km/h 49 % 0.0 mm
10:32 31.3 °C 19.3 °C 1013.8 hPa South 4.7 km/h 4.7 km/h 49 % 0.0 mm
10:37 31.9 °C 19.5 °C 1013.8 hPa South 5.6 km/h 5.6 km/h 48 % 0.0 mm
10:42 32.7 °C 20.3 °C 1013.8 hPa SSW 7.9 km/h 7.9 km/h 48 % 0.0 mm
10:47 32.4 °C 19.3 °C 1013.8 hPa SW 9.0 km/h 9.0 km/h 46 % 0.0 mm
10:52 31.9 °C 18.8 °C 1013.8 hPa SSW 5.6 km/h 5.6 km/h 46 % 0.0 mm
10:57 32.1 °C 18.7 °C 1013.8 hPa SW 3.7 km/h 3.7 km/h 45 % 0.0 mm
11:02 31.8 °C 18.4 °C 1013.8 hPa SW 7.4 km/h 7.4 km/h 45 % 0.0 mm
11:07 32.1 °C 18.7 °C 1013.8 hPa West 6.4 km/h 6.4 km/h 45 % 0.0 mm
11:12 32.0 °C 18.6 °C 1013.8 hPa WSW 6.9 km/h 6.9 km/h 45 % 0.0 mm
11:17 32.4 °C 18.9 °C 1013.8 hPa WSW 10.0 km/h 10.0 km/h 45 % 0.0 mm
11:22 32.5 °C 18.7 °C 1013.8 hPa SSW 3.7 km/h 3.7 km/h 44 % 0.0 mm
11:27 32.4 °C 18.6 °C 1013.8 hPa West 7.4 km/h 7.4 km/h 44 % 0.0 mm
11:32 32.5 °C 18.7 °C 1012.8 hPa WSW 5.6 km/h 5.6 km/h 44 % 0.0 mm
11:37 32.7 °C 18.5 °C 1012.8 hPa SW 7.4 km/h 7.4 km/h 43 % 0.0 mm
11:42 32.9 °C 18.7 °C 1012.8 hPa WSW 14.8 km/h 14.8 km/h 43 % 0.0 mm
11:47 33.0 °C 18.0 °C 1013.8 hPa SW 14.8 km/h 14.8 km/h 41 % 0.0 mm
11:52 33.0 °C 17.6 °C 1013.8 hPa West 13.0 km/h 13.0 km/h 40 % 0.0 mm
11:57 33.4 °C 17.9 °C 1013.8 hPa WSW 14.0 km/h 14.0 km/h 40 % 0.0 mm
12:02 33.3 °C 17.9 °C 1012.8 hPa SSE 9.3 km/h 9.3 km/h 40 % 0.0 mm
12:07 33.5 °C 18.1 °C 1012.8 hPa WSW 9.3 km/h 9.3 km/h 40 % 0.0 mm
12:12 33.9 °C 18.4 °C 1012.8 hPa SW 9.3 km/h 9.3 km/h 40 % 0.0 mm
12:17 33.8 °C 17.9 °C 1013.8 hPa SSW 13.0 km/h 13.0 km/h 39 % 0.0 mm
12:22 34.1 °C 18.2 °C 1013.8 hPa WSW 10.0 km/h 10.0 km/h 39 % 0.0 mm
12:27 34.1 °C 17.8 °C 1013.8 hPa SW 9.3 km/h 9.3 km/h 38 % 0.0 mm
12:32 34.1 °C 17.3 °C 1013.8 hPa WSW 14.8 km/h 14.8 km/h 37 % 0.0 mm
12:37 34.4 °C 17.2 °C 1013.8 hPa SSW 13.0 km/h 13.0 km/h 36 % 0.0 mm
12:42 34.5 °C 17.7 °C 1013.8 hPa SW 7.4 km/h 7.4 km/h 37 % 0.0 mm
12:47 35.3 °C 17.9 °C 1013.8 hPa West 7.4 km/h 7.4 km/h 36 % 0.0 mm
12:52 34.9 °C 17.6 °C 1013.8 hPa West 7.4 km/h 7.4 km/h 36 % 0.0 mm
12:57 34.4 °C 17.2 °C 1013.8 hPa West 11.1 km/h 11.1 km/h 36 % 0.0 mm
13:02 34.5 °C 16.8 °C 1013.8 hPa SW 7.4 km/h 7.4 km/h 35 % 0.0 mm
13:07 35.2 °C 16.9 °C 1013.8 hPa South 7.6 km/h 7.6 km/h 34 % 0.0 mm
13:12 35.3 °C 17.1 °C 1013.8 hPa SW 13.0 km/h 13.0 km/h 34 % 0.0 mm
13:17 35.1 °C 16.9 °C 1013.8 hPa SW 11.1 km/h 11.1 km/h 34 % 0.0 mm
13:22 34.6 °C 16.4 °C 1013.8 hPa WSW 20.4 km/h 20.4 km/h 34 % 0.0 mm
13:27 35.1 °C 16.4 °C 1013.8 hPa SSW 9.3 km/h 9.3 km/h 33 % 0.0 mm
13:32 35.1 °C 16.4 °C 1013.8 hPa SW 11.1 km/h 11.1 km/h 33 % 0.0 mm
13:37 35.2 °C 16.0 °C 1013.8 hPa SW 18.5 km/h 18.5 km/h 32 % 0.0 mm
13:42 34.7 °C 16.1 °C 1013.8 hPa SW 16.7 km/h 16.7 km/h 33 % 0.0 mm
13:47 34.9 °C 16.2 °C 1013.8 hPa SW 20.4 km/h 20.4 km/h 33 % 0.0 mm
13:52 35.0 °C 15.8 °C 1013.8 hPa South 7.4 km/h 8.7 km/h 32 % 0.0 mm
13:57 35.7 °C 16.4 °C 1013.8 hPa SSE 9.3 km/h 9.3 km/h 32 % 0.0 mm
14:02 35.4 °C 15.7 °C 1012.8 hPa SW 10.3 km/h 10.3 km/h 31 % 0.0 mm
14:07 35.3 °C 16.1 °C 1012.8 hPa SW 13.0 km/h 13.0 km/h 32 % 0.0 mm
14:12 35.3 °C 15.6 °C 1012.8 hPa SSW 9.3 km/h 9.3 km/h 31 % 0.0 mm
14:17 35.6 °C 15.9 °C 1012.8 hPa SSE 9.3 km/h 9.3 km/h 31 % 0.0 mm
14:22 35.6 °C 15.9 °C 1012.8 hPa WSW 14.8 km/h 14.8 km/h 31 % 0.0 mm
14:27 35.8 °C 16.1 °C 1012.8 hPa SW 9.3 km/h 9.3 km/h 31 % 0.0 mm
14:32 35.5 °C 15.8 °C 1012.8 hPa West 16.7 km/h 16.7 km/h 31 % 0.0 mm
14:37 35.2 °C 15.5 °C 1012.8 hPa SW 13.0 km/h 13.0 km/h 31 % 0.0 mm
14:42 35.2 °C 15.5 °C 1012.8 hPa SSW 16.4 km/h 16.4 km/h 31 % 0.0 mm
14:47 35.7 °C 15.9 °C 1012.8 hPa ESE 7.4 km/h 7.4 km/h 31 % 0.0 mm
14:52 35.9 °C 16.1 °C 1012.8 hPa West 24.8 km/h 24.8 km/h 31 % 0.0 mm
14:57 35.6 °C 15.9 °C 1012.8 hPa SW 13.0 km/h 13.0 km/h 31 % 0.0 mm
15:02 36.1 °C 16.3 °C 1011.7 hPa SSE 9.3 km/h 9.3 km/h 31 % 0.0 mm
15:07 36.4 °C 16.6 °C 1011.7 hPa WSW 12.2 km/h 12.2 km/h 31 % 0.0 mm
15:12 36.3 °C 16.4 °C 1011.7 hPa SW 9.3 km/h 9.3 km/h 31 % 0.0 mm
15:17 36.2 °C 16.4 °C 1011.7 hPa SSW 20.4 km/h 20.4 km/h 31 % 0.0 mm
15:22 35.7 °C 15.9 °C 1011.7 hPa SW 13.0 km/h 13.0 km/h 31 % 0.0 mm
15:27 36.0 °C 16.7 °C 1011.7 hPa SW 11.4 km/h 11.4 km/h 32 % 0.0 mm
15:32 35.9 °C 16.6 °C 1011.7 hPa SSE 11.1 km/h 11.1 km/h 32 % 0.0 mm
15:37 35.5 °C 16.3 °C 1011.7 hPa SW 11.1 km/h 11.1 km/h 32 % 0.0 mm
15:38 35.5 °C 16.3 °C 1011.7 hPa ESE 16.7 km/h 16.7 km/h 32 % 0.0 mm
15:43 35.1 °C 15.9 °C 1011.7 hPa West 11.1 km/h 11.1 km/h 32 % 0.0 mm
15:48 35.1 °C 16.4 °C 1011.7 hPa South 7.4 km/h 7.4 km/h 33 % 0.0 mm
15:53 35.3 °C 16.6 °C 1011.7 hPa South 7.4 km/h 7.4 km/h 33 % 0.0 mm
15:58 35.3 °C 16.6 °C 1011.7 hPa SE 16.7 km/h 16.7 km/h 33 % 0.0 mm
16:03 35.3 °C 16.6 °C 1011.7 hPa SSW 9.3 km/h 9.3 km/h 33 % 0.0 mm
16:08 35.0 °C 16.3 °C 1011.7 hPa SW 16.7 km/h 16.7 km/h 33 % 0.0 mm
16:13 35.3 °C 16.6 °C 1011.7 hPa South 13.0 km/h 13.0 km/h 33 % 0.0 mm
16:18 35.0 °C 16.3 °C 1011.7 hPa SW 20.4 km/h 20.4 km/h 33 % 0.0 mm
16:23 34.8 °C 16.6 °C 1011.7 hPa SSW 18.5 km/h 18.5 km/h 34 % 0.0 mm
16:28 35.0 °C 16.3 °C 1011.7 hPa SSE 13.0 km/h 13.0 km/h 33 % 0.0 mm
16:33 34.9 °C 16.7 °C 1011.7 hPa WSW 16.1 km/h 16.1 km/h 34 % 0.0 mm
16:38 34.9 °C 16.7 °C 1011.7 hPa South 22.2 km/h 22.2 km/h 34 % 0.0 mm
16:43 35.1 °C 16.9 °C 1011.7 hPa SW 18.5 km/h 18.5 km/h 34 % 0.0 mm
16:48 34.9 °C 17.2 °C 1011.7 hPa SW 9.3 km/h 9.3 km/h 35 % 0.0 mm
16:53 34.8 °C 17.1 °C 1011.7 hPa SSW 13.0 km/h 13.0 km/h 35 % 0.0 mm
17:03 34.8 °C 17.1 °C 1011.7 hPa SSW 7.4 km/h 7.4 km/h 35 % 0.0 mm
17:08 35.1 °C 16.9 °C 1011.7 hPa WSW 9.7 km/h 9.7 km/h 34 % 0.0 mm
17:13 35.1 °C 16.9 °C 1011.7 hPa SW 22.2 km/h 22.2 km/h 34 % 0.0 mm
17:18 34.7 °C 17.0 °C 1011.7 hPa SW 12.2 km/h 12.2 km/h 35 % 0.0 mm
17:23 34.7 °C 17.0 °C 1011.7 hPa SW 13.0 km/h 13.0 km/h 35 % 0.0 mm
17:28 34.3 °C 16.7 °C 1011.7 hPa WSW 16.7 km/h 16.7 km/h 35 % 0.0 mm
17:33 34.4 °C 16.7 °C 1011.7 hPa SW 13.0 km/h 13.0 km/h 35 % 0.0 mm
17:38 34.3 °C 16.2 °C 1011.7 hPa SW 12.6 km/h 12.6 km/h 34 % 0.0 mm
17:43 34.5 °C 16.8 °C 1011.7 hPa SW 11.1 km/h 11.1 km/h 35 % 0.0 mm
17:48 34.7 °C 16.6 °C 1011.7 hPa SW 13.0 km/h 13.0 km/h 34 % 0.0 mm
17:53 34.4 °C 16.3 °C 1011.7 hPa ESE 14.8 km/h 14.8 km/h 34 % 0.0 mm
17:58 34.7 °C 16.6 °C 1011.7 hPa South 9.3 km/h 9.3 km/h 34 % 0.0 mm
18:03 34.2 °C 16.1 °C 1011.7 hPa WSW 13.0 km/h 13.0 km/h 34 % 0.0 mm
18:08 34.4 °C 15.8 °C 1011.7 hPa South 11.9 km/h 11.9 km/h 33 % 0.0 mm
18:13 34.0 °C 15.4 °C 1011.7 hPa SSW 13.0 km/h 13.0 km/h 33 % 0.0 mm
18:18 34.0 °C 15.4 °C 1011.7 hPa SW 12.6 km/h 12.6 km/h 33 % 0.0 mm
18:28 33.8 °C 15.7 °C 1011.7 hPa SW 9.3 km/h 9.3 km/h 34 % 0.0 mm
18:33 33.7 °C 15.7 °C 1011.7 hPa SSW 9.3 km/h 9.3 km/h 34 % 0.0 mm
18:38 33.6 °C 15.6 °C 1011.7 hPa WNW 11.1 km/h 11.1 km/h 34 % 0.0 mm
18:43 33.8 °C 15.7 °C 1011.7 hPa SW 14.8 km/h 14.8 km/h 34 % 0.0 mm
18:48 33.5 °C 15.9 °C 1010.7 hPa SSW 13.7 km/h 13.7 km/h 35 % 0.0 mm
18:53 33.1 °C 15.6 °C 1010.7 hPa SE 9.3 km/h 9.3 km/h 35 % 0.0 mm
18:58 33.2 °C 15.7 °C 1010.7 hPa West 13.7 km/h 13.7 km/h 35 % 0.0 mm
19:03 32.7 °C 15.7 °C 1011.7 hPa SW 13.0 km/h 13.0 km/h 36 % 0.0 mm
19:08 32.7 °C 15.7 °C 1011.7 hPa SW 10.3 km/h 10.3 km/h 36 % 0.0 mm
19:10 26.7 °C 16.6 °C 1013.8 hPa NE 1.6 km/h 1.6 km/h 54 % 0.0 mm
19:13 32.6 °C 16.0 °C 1011.7 hPa SW 11.1 km/h 11.1 km/h 37 % 0.0 mm
19:18 32.2 °C 15.7 °C 1011.7 hPa WSW 16.7 km/h 16.7 km/h 37 % 0.0 mm
19:20 26.7 °C 16.9 °C 1013.8 hPa Calm   1.6 km/h 55 % 0.0 mm
19:23 31.9 °C 15.8 °C 1011.7 hPa SSW 11.4 km/h 11.4 km/h 38 % 0.0 mm
19:28 31.9 °C 15.8 °C 1011.7 hPa SW 9.3 km/h 9.3 km/h 38 % 0.0 mm
19:30 26.5 °C 16.7 °C 1013.8 hPa North 1.6 km/h 1.6 km/h 55 % 0.0 mm
19:33 31.7 °C 15.6 °C 1011.7 hPa WSW 11.1 km/h 11.1 km/h 38 % 0.0 mm
19:38 31.4 °C 15.8 °C 1011.7 hPa SW 12.2 km/h 12.2 km/h 39 % 0.0 mm
19:40 26.4 °C 16.9 °C 1013.8 hPa Calm   1.6 km/h 56 % 0.0 mm
19:43 31.2 °C 15.6 °C 1011.7 hPa South 7.4 km/h 7.4 km/h 39 % 0.0 mm
19:48 31.0 °C 15.8 °C 1011.7 hPa SSW 8.7 km/h 8.7 km/h 40 % 0.0 mm
19:50 26.3 °C 17.1 °C 1013.8 hPa NW 1.6 km/h 3.2 km/h 57 % 0.0 mm
19:53 30.7 °C 15.9 °C 1011.7 hPa SW 5.6 km/h 5.6 km/h 41 % 0.0 mm
19:58 30.6 °C 15.8 °C 1011.7 hPa SW 16.7 km/h 16.7 km/h 41 % 0.0 mm
20:00 26.2 °C 17.0 °C 1013.8 hPa NNE 1.6 km/h 3.2 km/h 57 % 0.0 mm
20:03 30.4 °C 16.1 °C 1010.7 hPa SW 13.0 km/h 13.0 km/h 42 % 0.0 mm
20:08 30.2 °C 15.9 °C 1010.7 hPa WSW 7.4 km/h 7.4 km/h 42 % 0.0 mm
20:10 26.1 °C 17.2 °C 1013.8 hPa Calm   3.2 km/h 58 % 0.0 mm
20:13 30.1 °C 16.2 °C 1010.7 hPa SW 5.6 km/h 5.6 km/h 43 % 0.0 mm
20:14 30.1 °C 16.2 °C 1010.7 hPa SW 5.6 km/h 5.6 km/h 43 % 0.0 mm
20:19 30.0 °C 16.1 °C 1011.7 hPa WSW 7.4 km/h 7.4 km/h 43 % 0.0 mm
20:20 26.0 °C 17.4 °C 1013.8 hPa NNE 1.6 km/h 3.2 km/h 59 % 0.0 mm
20:24 29.8 °C 15.9 °C 1011.7 hPa SSW 5.6 km/h 5.6 km/h 43 % 0.0 mm
20:29 29.8 °C 16.2 °C 1011.7 hPa South 5.6 km/h 5.6 km/h 44 % 0.0 mm
20:30 25.9 °C 17.6 °C 1013.8 hPa Calm     60 % 0.0 mm
20:34 29.7 °C 16.2 °C 1010.7 hPa SW 5.3 km/h 5.3 km/h 44 % 0.0 mm
20:39 29.7 °C 16.2 °C 1010.7 hPa WSW 5.6 km/h 5.6 km/h 44 % 0.0 mm
20:40 25.6 °C 17.0 °C 1013.8 hPa Calm     59 % 0.0 mm
20:44 29.5 °C 16.3 °C 1010.7 hPa South 7.4 km/h 7.4 km/h 45 % 0.0 mm
20:49 29.4 °C 16.2 °C 1011.7 hPa SW 5.6 km/h 5.6 km/h 45 % 0.0 mm
20:50 25.6 °C 17.3 °C 1013.8 hPa Calm   1.6 km/h 60 % 0.0 mm
20:54 29.3 °C 16.1 °C 1011.7 hPa SW 9.3 km/h 9.3 km/h 45 % 0.0 mm
20:59 29.3 °C 16.1 °C 1011.7 hPa SW 5.6 km/h 5.6 km/h 45 % 0.0 mm
21:00 25.5 °C 17.4 °C 1013.8 hPa Calm     61 % 0.0 mm
21:04 29.2 °C 16.1 °C 1011.7 hPa South 3.9 km/h 3.9 km/h 45 % 0.0 mm
21:09 29.1 °C 16.3 °C 1011.7 hPa SW 7.4 km/h 7.4 km/h 46 % 0.0 mm
21:10 25.5 °C 17.7 °C 1013.8 hPa Calm   1.6 km/h 62 % 0.0 mm
21:14 29.0 °C 16.2 °C 1011.7 hPa SW 5.6 km/h 5.6 km/h 46 % 0.0 mm
21:19 28.9 °C 16.4 °C 1012.8 hPa SW 4.2 km/h 4.2 km/h 47 % 0.0 mm
21:20 25.4 °C 17.8 °C 1013.8 hPa Calm     63 % 0.0 mm
21:21 28.9 °C 16.4 °C 1012.8 hPa WSW 4.2 km/h 4.2 km/h 47 % 0.0 mm
21:26 28.8 °C 16.7 °C 1012.8 hPa SSE 3.7 km/h 3.7 km/h 48 % 0.0 mm
21:30 25.4 °C 17.8 °C 1013.8 hPa Calm     63 % 0.0 mm
21:31 28.7 °C 16.6 °C 1013.8 hPa SSW 1.9 km/h   48 % 0.0 mm
21:36 28.6 °C 16.5 °C 1013.8 hPa SSE 3.7 km/h 3.7 km/h 48 % 0.0 mm
21:40 25.3 °C 17.7 °C 1013.8 hPa Calm     63 % 0.0 mm
21:41 28.6 °C 16.5 °C 1013.8 hPa Calm     48 % 0.0 mm
21:46 28.5 °C 16.4 °C 1013.8 hPa West 1.9 km/h 2.3 km/h 48 % 0.0 mm
21:50 25.2 °C 17.9 °C 1013.8 hPa Calm     64 % 0.0 mm
21:51 28.4 °C 16.3 °C 1013.8 hPa SSW 3.7 km/h 3.7 km/h 48 % 0.0 mm
21:56 28.3 °C 16.6 °C 1013.8 hPa SW 3.7 km/h 3.7 km/h 49 % 0.0 mm
22:00 25.0 °C 17.7 °C 1013.8 hPa Calm     64 % 0.0 mm
22:01 28.2 °C 16.4 °C 1013.8 hPa SW 5.8 km/h 5.8 km/h 49 % 0.0 mm
22:06 28.0 °C 16.6 °C 1013.8 hPa SW 5.6 km/h 5.6 km/h 50 % 0.0 mm
22:10 24.9 °C 17.9 °C 1013.8 hPa Calm     65 % 0.0 mm
22:11 28.0 °C 16.6 °C 1013.8 hPa WSW 3.7 km/h 3.7 km/h 50 % 0.0 mm
22:16 27.9 °C 16.5 °C 1013.8 hPa Calm     50 % 0.0 mm
22:20 24.8 °C 17.8 °C 1013.8 hPa WNW 1.6 km/h 1.6 km/h 65 % 0.0 mm
22:21 27.8 °C 16.7 °C 1013.8 hPa SSW 1.9 km/h   51 % 0.0 mm
22:26 27.7 °C 16.7 °C 1013.8 hPa WSW 1.9 km/h 1.9 km/h 51 % 0.0 mm
22:30 24.7 °C 18.2 °C 1013.8 hPa Calm   1.6 km/h 67 % 0.0 mm
22:31 27.7 °C 16.7 °C 1013.8 hPa WSW 3.7 km/h 3.7 km/h 51 % 0.0 mm
22:36 27.6 °C 16.6 °C 1013.8 hPa SW 1.9 km/h 1.9 km/h 51 % 0.0 mm
22:40 24.4 °C 17.6 °C 1013.8 hPa NW 1.6 km/h 3.2 km/h 66 % 0.0 mm
22:41 27.5 °C 16.4 °C 1013.8 hPa Calm     51 % 0.0 mm
22:46 27.5 °C 16.8 °C 1013.8 hPa Calm     52 % 0.0 mm
22:50 24.3 °C 17.8 °C 1013.8 hPa Calm   1.6 km/h 67 % 0.0 mm
22:51 27.4 °C 16.7 °C 1013.8 hPa Calm     52 % 0.0 mm
22:56 27.3 °C 16.6 °C 1013.8 hPa SE 2.3 km/h   52 % 0.0 mm
23:00 24.1 °C 17.6 °C 1013.8 hPa Calm   1.6 km/h 67 % 0.0 mm
23:01 27.3 °C 16.6 °C 1013.8 hPa SE 1.9 km/h   52 % 0.0 mm
23:06 27.3 °C 16.6 °C 1013.8 hPa ESE 3.7 km/h   52 % 0.0 mm
23:10 23.9 °C 17.9 °C 1013.8 hPa Calm   1.6 km/h 69 % 0.0 mm
23:11 27.3 °C 16.6 °C 1013.8 hPa ENE 3.7 km/h 3.7 km/h 52 % 0.0 mm
23:16 27.3 °C 16.6 °C 1013.8 hPa SW 1.9 km/h   52 % 0.0 mm
23:20 23.9 °C 18.1 °C 1013.8 hPa Calm     70 % 0.0 mm
23:21 27.2 °C 16.5 °C 1013.8 hPa WSW 1.9 km/h   52 % 0.0 mm
23:26 27.1 °C 16.4 °C 1013.8 hPa Calm     52 % 0.0 mm
23:30 23.8 °C 18.0 °C 1013.8 hPa Calm     70 % 0.0 mm
23:31 27.1 °C 16.4 °C 1013.8 hPa Calm     52 % 0.0 mm
23:36 27.0 °C 16.3 °C 1013.8 hPa WSW 1.9 km/h   52 % 0.0 mm
23:40 23.8 °C 18.0 °C 1013.8 hPa Calm     70 % 0.0 mm
23:41 27.0 °C 16.3 °C 1013.8 hPa Calm     52 % 0.0 mm
23:46 27.0 °C 16.3 °C 1013.8 hPa Calm     52 % 0.0 mm
23:50 23.9 °C 18.3 °C 1013.8 hPa Calm   3.2 km/h 71 % 0.0 mm
23:51 26.9 °C 16.5 °C 1013.8 hPa NE 1.9 km/h 2.3 km/h 53 % 0.0 mm
23:56 26.8 °C 16.7 °C 1013.8 hPa Calm     54 % 0.0 mm
Meteo Sesrovires
Elogis d' Weather Underground - 3.75 mb

Guio original per  Jim McMurry - jmcmurry@mwt.net Adaptat per a la plantilla per  Wim van der Kuil - Leuven-Template.eu

Trobareu la nostra informacio del temps tambe a:

Weather Underground

AWEKAS